sensor_id;sensor_type;location;lat;lon;timestamp;P1;durP1;ratioP1;P2;durP2;ratioP2
21101;SDS011;10709;49.006;12.100;2023-02-23T00:01:39;9.57;;;6.90;;
21101;SDS011;10709;49.006;12.100;2023-02-23T00:04:07;9.10;;;6.20;;
21101;SDS011;10709;49.006;12.100;2023-02-23T00:06:35;8.37;;;6.20;;
21101;SDS011;10709;49.006;12.100;2023-02-23T00:09:02;9.67;;;6.43;;
21101;SDS011;10709;49.006;12.100;2023-02-23T00:11:40;7.97;;;6.27;;
21101;SDS011;10709;49.006;12.100;2023-02-23T00:14:06;9.30;;;6.77;;
21101;SDS011;10709;49.006;12.100;2023-02-23T00:16:34;10.20;;;7.13;;
21101;SDS011;10709;49.006;12.100;2023-02-23T00:19:02;9.37;;;6.93;;
21101;SDS011;10709;49.006;12.100;2023-02-23T00:21:32;11.40;;;7.10;;
21101;SDS011;10709;49.006;12.100;2023-02-23T00:24:06;9.43;;;6.27;;
21101;SDS011;10709;49.006;12.100;2023-02-23T00:26:36;9.83;;;7.00;;
21101;SDS011;10709;49.006;12.100;2023-02-23T00:29:06;9.33;;;7.30;;
21101;SDS011;10709;49.006;12.100;2023-02-23T00:31:50;9.93;;;6.77;;
21101;SDS011;10709;49.006;12.100;2023-02-23T00:34:18;7.83;;;6.10;;
21101;SDS011;10709;49.006;12.100;2023-02-23T00:36:49;9.10;;;6.90;;
21101;SDS011;10709;49.006;12.100;2023-02-23T00:39:17;9.73;;;6.90;;
21101;SDS011;10709;49.006;12.100;2023-02-23T00:41:47;12.10;;;7.00;;
21101;SDS011;10709;49.006;12.100;2023-02-23T00:44:15;10.37;;;7.40;;
21101;SDS011;10709;49.006;12.100;2023-02-23T00:46:42;9.63;;;7.03;;
21101;SDS011;10709;49.006;12.100;2023-02-23T00:49:11;9.67;;;6.90;;
21101;SDS011;10709;49.006;12.100;2023-02-23T00:51:39;10.03;;;7.33;;
21101;SDS011;10709;49.006;12.100;2023-02-23T00:54:06;10.97;;;7.37;;
21101;SDS011;10709;49.006;12.100;2023-02-23T00:56:33;12.20;;;7.93;;
21101;SDS011;10709;49.006;12.100;2023-02-23T00:59:00;11.03;;;7.60;;
21101;SDS011;10709;49.006;12.100;2023-02-23T01:01:26;12.40;;;8.37;;
21101;SDS011;10709;49.006;12.100;2023-02-23T01:03:53;11.17;;;8.00;;
21101;SDS011;10709;49.006;12.100;2023-02-23T01:06:20;12.83;;;7.80;;
21101;SDS011;10709;49.006;12.100;2023-02-23T01:08:47;11.90;;;7.60;;
21101;SDS011;10709;49.006;12.100;2023-02-23T01:11:16;9.37;;;7.53;;
21101;SDS011;10709;49.006;12.100;2023-02-23T01:13:48;10.60;;;7.53;;
21101;SDS011;10709;49.006;12.100;2023-02-23T01:16:18;9.73;;;7.37;;
21101;SDS011;10709;49.006;12.100;2023-02-23T01:18:47;12.40;;;9.00;;
21101;SDS011;10709;49.006;12.100;2023-02-23T01:21:15;10.90;;;8.23;;
21101;SDS011;10709;49.006;12.100;2023-02-23T01:23:48;9.63;;;6.90;;
21101;SDS011;10709;49.006;12.100;2023-02-23T01:26:21;10.70;;;7.47;;
21101;SDS011;10709;49.006;12.100;2023-02-23T01:28:49;11.77;;;7.93;;
21101;SDS011;10709;49.006;12.100;2023-02-23T01:31:22;12.00;;;8.40;;
21101;SDS011;10709;49.006;12.100;2023-02-23T01:33:52;12.03;;;8.63;;
21101;SDS011;10709;49.006;12.100;2023-02-23T01:36:21;12.13;;;7.87;;
21101;SDS011;10709;49.006;12.100;2023-02-23T01:38:48;11.47;;;7.90;;
21101;SDS011;10709;49.006;12.100;2023-02-23T01:41:15;11.40;;;7.60;;
21101;SDS011;10709;49.006;12.100;2023-02-23T01:43:55;10.83;;;7.63;;
21101;SDS011;10709;49.006;12.100;2023-02-23T01:46:26;10.40;;;7.73;;
21101;SDS011;10709;49.006;12.100;2023-02-23T01:48:53;12.23;;;7.73;;
21101;SDS011;10709;49.006;12.100;2023-02-23T01:51:22;11.43;;;7.80;;
21101;SDS011;10709;49.006;12.100;2023-02-23T01:53:55;9.70;;;7.40;;
21101;SDS011;10709;49.006;12.100;2023-02-23T01:56:28;10.50;;;7.10;;
21101;SDS011;10709;49.006;12.100;2023-02-23T01:59:08;8.70;;;6.27;;
21101;SDS011;10709;49.006;12.100;2023-02-23T02:01:38;12.60;;;7.90;;
21101;SDS011;10709;49.006;12.100;2023-02-23T02:04:08;8.83;;;6.80;;
21101;SDS011;10709;49.006;12.100;2023-02-23T02:06:42;10.17;;;7.00;;
21101;SDS011;10709;49.006;12.100;2023-02-23T02:09:12;11.93;;;7.87;;
21101;SDS011;10709;49.006;12.100;2023-02-23T02:11:45;8.53;;;6.80;;
21101;SDS011;10709;49.006;12.100;2023-02-23T02:14:15;13.27;;;7.80;;
21101;SDS011;10709;49.006;12.100;2023-02-23T02:16:55;10.77;;;7.23;;
21101;SDS011;10709;49.006;12.100;2023-02-23T02:34:29;9.13;;;7.17;;
21101;SDS011;10709;49.006;12.100;2023-02-23T02:37:06;10.80;;;7.70;;
21101;SDS011;10709;49.006;12.100;2023-02-23T02:39:53;9.93;;;7.57;;
21101;SDS011;10709;49.006;12.100;2023-02-23T02:42:44;10.80;;;7.63;;
21101;SDS011;10709;49.006;12.100;2023-02-23T02:45:29;9.53;;;7.23;;
21101;SDS011;10709;49.006;12.100;2023-02-23T02:48:16;10.27;;;7.60;;
21101;SDS011;10709;49.006;12.100;2023-02-23T02:51:00;9.33;;;6.93;;
21101;SDS011;10709;49.006;12.100;2023-02-23T02:53:38;8.40;;;6.57;;
21101;SDS011;10709;49.006;12.100;2023-02-23T02:56:12;10.13;;;7.70;;
21101;SDS011;10709;49.006;12.100;2023-02-23T02:58:45;12.60;;;9.20;;
21101;SDS011;10709;49.006;12.100;2023-02-23T03:01:15;13.97;;;9.20;;
21101;SDS011;10709;49.006;12.100;2023-02-23T03:04:23;10.83;;;8.30;;
21101;SDS011;10709;49.006;12.100;2023-02-23T03:07:10;13.30;;;8.60;;
21101;SDS011;10709;49.006;12.100;2023-02-23T03:19:10;11.03;;;7.33;;
21101;SDS011;10709;49.006;12.100;2023-02-23T03:22:13;9.60;;;7.13;;
21101;SDS011;10709;49.006;12.100;2023-02-23T03:25:07;12.23;;;7.37;;
21101;SDS011;10709;49.006;12.100;2023-02-23T03:31:08;11.60;;;7.37;;
21101;SDS011;10709;49.006;12.100;2023-02-23T03:34:09;9.97;;;7.77;;
21101;SDS011;10709;49.006;12.100;2023-02-23T03:40:05;9.50;;;7.10;;
21101;SDS011;10709;49.006;12.100;2023-02-23T03:42:56;11.43;;;7.20;;
21101;SDS011;10709;49.006;12.100;2023-02-23T03:45:45;10.33;;;7.50;;
21101;SDS011;10709;49.006;12.100;2023-02-23T03:48:33;9.83;;;7.33;;
21101;SDS011;10709;49.006;12.100;2023-02-23T03:51:20;11.03;;;7.97;;
21101;SDS011;10709;49.006;12.100;2023-02-23T03:54:15;10.23;;;7.60;;
21101;SDS011;10709;49.006;12.100;2023-02-23T03:57:04;12.10;;;8.23;;
21101;SDS011;10709;49.006;12.100;2023-02-23T03:59:56;11.20;;;7.40;;
21101;SDS011;10709;49.006;12.100;2023-02-23T04:02:44;9.53;;;6.83;;
21101;SDS011;10709;49.006;12.100;2023-02-23T04:05:33;9.43;;;7.50;;
21101;SDS011;10709;49.006;12.100;2023-02-23T04:08:23;12.00;;;7.83;;
21101;SDS011;10709;49.006;12.100;2023-02-23T04:11:16;9.90;;;7.40;;
21101;SDS011;10709;49.006;12.100;2023-02-23T04:14:10;11.33;;;7.77;;
21101;SDS011;10709;49.006;12.100;2023-02-23T04:16:43;10.23;;;7.97;;
21101;SDS011;10709;49.006;12.100;2023-02-23T04:19:10;10.43;;;7.97;;
21101;SDS011;10709;49.006;12.100;2023-02-23T04:21:37;10.73;;;7.77;;
21101;SDS011;10709;49.006;12.100;2023-02-23T04:24:04;12.67;;;9.00;;
21101;SDS011;10709;49.006;12.100;2023-02-23T04:26:30;13.03;;;9.07;;
21101;SDS011;10709;49.006;12.100;2023-02-23T04:28:57;11.07;;;8.00;;
21101;SDS011;10709;49.006;12.100;2023-02-23T04:31:23;10.17;;;7.63;;
21101;SDS011;10709;49.006;12.100;2023-02-23T04:33:51;11.60;;;8.23;;
21101;SDS011;10709;49.006;12.100;2023-02-23T04:36:17;11.33;;;8.00;;
21101;SDS011;10709;49.006;12.100;2023-02-23T04:38:44;11.40;;;7.77;;
21101;SDS011;10709;49.006;12.100;2023-02-23T04:41:10;10.10;;;7.83;;
21101;SDS011;10709;49.006;12.100;2023-02-23T04:43:37;10.77;;;8.50;;
21101;SDS011;10709;49.006;12.100;2023-02-23T04:46:03;10.20;;;7.20;;
21101;SDS011;10709;49.006;12.100;2023-02-23T04:48:30;12.37;;;8.20;;
21101;SDS011;10709;49.006;12.100;2023-02-23T04:50:56;10.50;;;7.40;;
21101;SDS011;10709;49.006;12.100;2023-02-23T04:53:22;10.60;;;7.30;;
21101;SDS011;10709;49.006;12.100;2023-02-23T04:55:49;9.27;;;7.20;;
21101;SDS011;10709;49.006;12.100;2023-02-23T04:58:16;9.87;;;7.13;;
21101;SDS011;10709;49.006;12.100;2023-02-23T05:00:43;9.00;;;7.20;;
21101;SDS011;10709;49.006;12.100;2023-02-23T05:03:09;10.63;;;7.07;;
21101;SDS011;10709;49.006;12.100;2023-02-23T05:05:37;9.47;;;6.97;;
21101;SDS011;10709;49.006;12.100;2023-02-23T05:08:04;10.77;;;8.00;;
21101;SDS011;10709;49.006;12.100;2023-02-23T05:10:31;12.03;;;8.20;;
21101;SDS011;10709;49.006;12.100;2023-02-23T05:12:57;12.13;;;8.07;;
21101;SDS011;10709;49.006;12.100;2023-02-23T05:15:24;11.90;;;8.60;;
21101;SDS011;10709;49.006;12.100;2023-02-23T05:17:51;10.90;;;8.07;;
21101;SDS011;10709;49.006;12.100;2023-02-23T05:20:17;11.10;;;8.17;;
21101;SDS011;10709;49.006;12.100;2023-02-23T05:22:44;11.53;;;8.20;;
21101;SDS011;10709;49.006;12.100;2023-02-23T05:25:10;10.90;;;8.53;;
21101;SDS011;10709;49.006;12.100;2023-02-23T05:27:37;13.07;;;9.60;;
21101;SDS011;10709;49.006;12.100;2023-02-23T05:30:05;13.67;;;9.60;;
21101;SDS011;10709;49.006;12.100;2023-02-23T05:32:33;12.87;;;9.23;;
21101;SDS011;10709;49.006;12.100;2023-02-23T05:35:00;13.23;;;8.90;;
21101;SDS011;10709;49.006;12.100;2023-02-23T05:37:27;12.27;;;8.70;;
21101;SDS011;10709;49.006;12.100;2023-02-23T05:39:54;12.07;;;8.93;;
21101;SDS011;10709;49.006;12.100;2023-02-23T05:42:20;14.67;;;9.60;;
21101;SDS011;10709;49.006;12.100;2023-02-23T05:44:47;11.27;;;8.13;;
21101;SDS011;10709;49.006;12.100;2023-02-23T05:47:13;11.93;;;8.27;;
21101;SDS011;10709;49.006;12.100;2023-02-23T05:49:39;11.93;;;9.13;;
21101;SDS011;10709;49.006;12.100;2023-02-23T05:52:06;12.10;;;9.10;;
21101;SDS011;10709;49.006;12.100;2023-02-23T05:54:33;11.57;;;8.50;;
21101;SDS011;10709;49.006;12.100;2023-02-23T05:57:00;11.53;;;7.90;;
21101;SDS011;10709;49.006;12.100;2023-02-23T05:59:27;12.87;;;9.00;;
21101;SDS011;10709;49.006;12.100;2023-02-23T06:01:53;11.17;;;9.03;;
21101;SDS011;10709;49.006;12.100;2023-02-23T06:04:20;13.53;;;10.00;;
21101;SDS011;10709;49.006;12.100;2023-02-23T06:06:48;15.10;;;10.90;;
21101;SDS011;10709;49.006;12.100;2023-02-23T06:09:14;16.03;;;10.73;;
21101;SDS011;10709;49.006;12.100;2023-02-23T06:11:41;15.27;;;10.60;;
21101;SDS011;10709;49.006;12.100;2023-02-23T06:14:08;16.27;;;10.60;;
21101;SDS011;10709;49.006;12.100;2023-02-23T06:16:34;16.37;;;11.20;;
21101;SDS011;10709;49.006;12.100;2023-02-23T06:19:01;17.40;;;11.97;;
21101;SDS011;10709;49.006;12.100;2023-02-23T06:21:28;16.33;;;11.07;;
21101;SDS011;10709;49.006;12.100;2023-02-23T06:23:54;17.37;;;11.67;;
21101;SDS011;10709;49.006;12.100;2023-02-23T06:26:21;17.63;;;11.80;;
21101;SDS011;10709;49.006;12.100;2023-02-23T06:28:47;20.27;;;13.37;;
21101;SDS011;10709;49.006;12.100;2023-02-23T06:31:13;18.20;;;11.97;;
21101;SDS011;10709;49.006;12.100;2023-02-23T06:33:40;18.40;;;12.03;;
21101;SDS011;10709;49.006;12.100;2023-02-23T06:36:06;18.70;;;12.13;;
21101;SDS011;10709;49.006;12.100;2023-02-23T06:38:33;17.93;;;11.37;;
21101;SDS011;10709;49.006;12.100;2023-02-23T06:41:05;18.13;;;12.27;;
21101;SDS011;10709;49.006;12.100;2023-02-23T06:43:32;15.33;;;10.87;;
21101;SDS011;10709;49.006;12.100;2023-02-23T06:45:58;16.73;;;11.93;;
21101;SDS011;10709;49.006;12.100;2023-02-23T06:48:25;21.93;;;14.80;;
21101;SDS011;10709;49.006;12.100;2023-02-23T06:50:52;24.93;;;16.67;;
21101;SDS011;10709;49.006;12.100;2023-02-23T06:53:18;20.90;;;14.90;;
21101;SDS011;10709;49.006;12.100;2023-02-23T06:55:45;20.47;;;14.47;;
21101;SDS011;10709;49.006;12.100;2023-02-23T06:58:12;18.77;;;13.37;;
21101;SDS011;10709;49.006;12.100;2023-02-23T07:00:38;18.90;;;13.10;;
21101;SDS011;10709;49.006;12.100;2023-02-23T07:03:08;19.80;;;13.40;;
21101;SDS011;10709;49.006;12.100;2023-02-23T07:05:36;20.67;;;14.10;;
21101;SDS011;10709;49.006;12.100;2023-02-23T07:08:02;22.97;;;14.17;;
21101;SDS011;10709;49.006;12.100;2023-02-23T07:10:29;17.60;;;12.83;;
21101;SDS011;10709;49.006;12.100;2023-02-23T07:12:55;19.53;;;12.93;;
21101;SDS011;10709;49.006;12.100;2023-02-23T07:15:22;15.80;;;11.63;;
21101;SDS011;10709;49.006;12.100;2023-02-23T07:17:49;19.67;;;13.47;;
21101;SDS011;10709;49.006;12.100;2023-02-23T07:20:17;19.07;;;13.97;;
21101;SDS011;10709;49.006;12.100;2023-02-23T07:22:44;23.03;;;14.13;;
21101;SDS011;10709;49.006;12.100;2023-02-23T07:25:11;19.80;;;13.40;;
21101;SDS011;10709;49.006;12.100;2023-02-23T07:27:38;19.43;;;13.67;;
21101;SDS011;10709;49.006;12.100;2023-02-23T07:30:07;18.93;;;13.63;;
21101;SDS011;10709;49.006;12.100;2023-02-23T07:32:34;18.37;;;13.07;;
21101;SDS011;10709;49.006;12.100;2023-02-23T07:35:01;20.63;;;13.87;;
21101;SDS011;10709;49.006;12.100;2023-02-23T07:37:28;19.73;;;14.20;;
21101;SDS011;10709;49.006;12.100;2023-02-23T07:39:55;18.67;;;13.53;;
21101;SDS011;10709;49.006;12.100;2023-02-23T07:42:21;19.27;;;13.70;;
21101;SDS011;10709;49.006;12.100;2023-02-23T07:44:47;20.90;;;14.80;;
21101;SDS011;10709;49.006;12.100;2023-02-23T07:47:14;19.70;;;13.97;;
21101;SDS011;10709;49.006;12.100;2023-02-23T07:49:40;18.67;;;14.33;;
21101;SDS011;10709;49.006;12.100;2023-02-23T07:52:08;20.13;;;13.77;;
21101;SDS011;10709;49.006;12.100;2023-02-23T07:54:34;22.83;;;15.40;;
21101;SDS011;10709;49.006;12.100;2023-02-23T07:57:00;21.17;;;14.30;;
21101;SDS011;10709;49.006;12.100;2023-02-23T07:59:27;20.23;;;15.23;;
21101;SDS011;10709;49.006;12.100;2023-02-23T08:01:54;21.37;;;15.67;;
21101;SDS011;10709;49.006;12.100;2023-02-23T08:04:20;23.77;;;16.60;;
21101;SDS011;10709;49.006;12.100;2023-02-23T08:06:47;21.17;;;16.00;;
21101;SDS011;10709;49.006;12.100;2023-02-23T08:09:13;19.70;;;14.93;;
21101;SDS011;10709;49.006;12.100;2023-02-23T08:11:39;21.23;;;16.30;;
21101;SDS011;10709;49.006;12.100;2023-02-23T08:14:06;23.10;;;16.63;;
21101;SDS011;10709;49.006;12.100;2023-02-23T08:16:32;20.77;;;15.90;;
21101;SDS011;10709;49.006;12.100;2023-02-23T08:18:59;22.13;;;16.13;;
21101;SDS011;10709;49.006;12.100;2023-02-23T08:21:26;21.87;;;16.40;;
21101;SDS011;10709;49.006;12.100;2023-02-23T08:23:55;18.60;;;15.00;;
21101;SDS011;10709;49.006;12.100;2023-02-23T08:26:22;23.03;;;16.73;;
21101;SDS011;10709;49.006;12.100;2023-02-23T08:28:51;23.13;;;17.00;;
21101;SDS011;10709;49.006;12.100;2023-02-23T08:31:18;20.17;;;15.37;;
21101;SDS011;10709;49.006;12.100;2023-02-23T08:33:49;22.10;;;16.00;;
21101;SDS011;10709;49.006;12.100;2023-02-23T08:36:16;23.20;;;15.57;;
21101;SDS011;10709;49.006;12.100;2023-02-23T08:38:43;25.20;;;15.57;;
21101;SDS011;10709;49.006;12.100;2023-02-23T08:41:10;23.07;;;16.50;;
21101;SDS011;10709;49.006;12.100;2023-02-23T08:43:36;20.20;;;15.97;;
21101;SDS011;10709;49.006;12.100;2023-02-23T08:46:04;26.63;;;17.73;;
21101;SDS011;10709;49.006;12.100;2023-02-23T08:48:31;25.17;;;16.47;;
21101;SDS011;10709;49.006;12.100;2023-02-23T08:50:59;25.13;;;17.30;;
21101;SDS011;10709;49.006;12.100;2023-02-23T08:53:26;23.33;;;17.30;;
21101;SDS011;10709;49.006;12.100;2023-02-23T08:55:55;25.07;;;18.27;;
21101;SDS011;10709;49.006;12.100;2023-02-23T08:58:22;22.20;;;17.83;;
21101;SDS011;10709;49.006;12.100;2023-02-23T09:00:49;27.57;;;18.83;;
21101;SDS011;10709;49.006;12.100;2023-02-23T09:03:15;26.10;;;17.00;;
21101;SDS011;10709;49.006;12.100;2023-02-23T09:05:42;22.73;;;17.53;;
21101;SDS011;10709;49.006;12.100;2023-02-23T09:08:09;28.20;;;17.07;;
21101;SDS011;10709;49.006;12.100;2023-02-23T09:10:37;22.43;;;16.10;;
21101;SDS011;10709;49.006;12.100;2023-02-23T09:13:04;27.73;;;17.70;;
21101;SDS011;10709;49.006;12.100;2023-02-23T09:15:30;27.20;;;17.83;;
21101;SDS011;10709;49.006;12.100;2023-02-23T09:18:00;23.90;;;16.77;;
21101;SDS011;10709;49.006;12.100;2023-02-23T09:20:27;27.00;;;16.93;;
21101;SDS011;10709;49.006;12.100;2023-02-23T09:22:54;24.77;;;16.97;;
21101;SDS011;10709;49.006;12.100;2023-02-23T09:25:21;23.93;;;17.10;;
21101;SDS011;10709;49.006;12.100;2023-02-23T09:27:48;28.53;;;17.73;;
21101;SDS011;10709;49.006;12.100;2023-02-23T09:30:21;24.20;;;17.30;;
21101;SDS011;10709;49.006;12.100;2023-02-23T09:32:49;27.90;;;18.03;;
21101;SDS011;10709;49.006;12.100;2023-02-23T09:35:17;25.67;;;17.97;;
21101;SDS011;10709;49.006;12.100;2023-02-23T09:37:48;24.63;;;17.83;;
21101;SDS011;10709;49.006;12.100;2023-02-23T09:40:17;23.90;;;16.90;;
21101;SDS011;10709;49.006;12.100;2023-02-23T09:45:30;30.00;;;17.63;;
21101;SDS011;10709;49.006;12.100;2023-02-23T09:50:30;28.30;;;18.47;;
21101;SDS011;10709;49.006;12.100;2023-02-23T09:53:01;30.03;;;19.07;;
21101;SDS011;10709;49.006;12.100;2023-02-23T09:55:32;30.37;;;18.77;;
21101;SDS011;10709;49.006;12.100;2023-02-23T09:58:03;30.77;;;19.60;;
21101;SDS011;10709;49.006;12.100;2023-02-23T10:00:36;34.60;;;18.53;;
21101;SDS011;10709;49.006;12.100;2023-02-23T10:03:29;29.20;;;18.90;;
21101;SDS011;10709;49.006;12.100;2023-02-23T10:05:59;32.97;;;19.90;;
21101;SDS011;10709;49.006;12.100;2023-02-23T10:19:29;35.10;;;22.10;;
21101;SDS011;10709;49.006;12.100;2023-02-23T10:22:04;35.40;;;22.20;;
21101;SDS011;10709;49.006;12.100;2023-02-23T10:24:54;34.40;;;22.80;;
21101;SDS011;10709;49.006;12.100;2023-02-23T10:27:28;32.37;;;22.23;;
21101;SDS011;10709;49.006;12.100;2023-02-23T10:30:03;41.43;;;23.13;;
21101;SDS011;10709;49.006;12.100;2023-02-23T10:32:39;33.00;;;23.03;;
21101;SDS011;10709;49.006;12.100;2023-02-23T10:35:12;34.40;;;22.63;;
21101;SDS011;10709;49.006;12.100;2023-02-23T10:37:41;35.73;;;23.73;;
21101;SDS011;10709;49.006;12.100;2023-02-23T10:40:12;34.33;;;22.33;;
21101;SDS011;10709;49.006;12.100;2023-02-23T10:42:43;32.50;;;21.33;;
21101;SDS011;10709;49.006;12.100;2023-02-23T10:45:17;35.03;;;21.07;;
21101;SDS011;10709;49.006;12.100;2023-02-23T10:50:31;33.90;;;22.43;;
21101;SDS011;10709;49.006;12.100;2023-02-23T10:52:59;35.83;;;23.23;;
21101;SDS011;10709;49.006;12.100;2023-02-23T10:55:35;29.50;;;20.40;;
21101;SDS011;10709;49.006;12.100;2023-02-23T11:00:29;39.57;;;23.87;;
21101;SDS011;10709;49.006;12.100;2023-02-23T11:02:59;34.37;;;22.77;;
21101;SDS011;10709;49.006;12.100;2023-02-23T11:06:01;33.43;;;22.30;;
21101;SDS011;10709;49.006;12.100;2023-02-23T11:10:55;35.73;;;23.33;;
21101;SDS011;10709;49.006;12.100;2023-02-23T11:13:30;34.03;;;22.40;;
21101;SDS011;10709;49.006;12.100;2023-02-23T11:16:08;39.63;;;23.47;;
21101;SDS011;10709;49.006;12.100;2023-02-23T11:18:36;36.17;;;24.50;;
21101;SDS011;10709;49.006;12.100;2023-02-23T11:21:08;37.13;;;23.43;;
21101;SDS011;10709;49.006;12.100;2023-02-23T11:23:39;32.77;;;23.60;;
21101;SDS011;10709;49.006;12.100;2023-02-23T11:26:18;36.67;;;23.53;;
21101;SDS011;10709;49.006;12.100;2023-02-23T11:28:50;34.47;;;22.07;;
21101;SDS011;10709;49.006;12.100;2023-02-23T11:31:19;38.03;;;23.87;;
21101;SDS011;10709;49.006;12.100;2023-02-23T11:33:49;40.63;;;24.13;;
21101;SDS011;10709;49.006;12.100;2023-02-23T11:38:48;34.90;;;21.53;;
21101;SDS011;10709;49.006;12.100;2023-02-23T11:41:28;33.57;;;22.20;;
21101;SDS011;10709;49.006;12.100;2023-02-23T11:43:58;34.33;;;23.73;;
21101;SDS011;10709;49.006;12.100;2023-02-23T11:46:31;38.30;;;24.07;;
21101;SDS011;10709;49.006;12.100;2023-02-23T11:49:03;35.57;;;23.90;;
21101;SDS011;10709;49.006;12.100;2023-02-23T11:51:33;40.60;;;25.30;;
21101;SDS011;10709;49.006;12.100;2023-02-23T11:54:02;36.27;;;23.67;;
21101;SDS011;10709;49.006;12.100;2023-02-23T11:56:31;37.97;;;24.87;;
21101;SDS011;10709;49.006;12.100;2023-02-23T11:59:03;40.37;;;25.67;;
21101;SDS011;10709;49.006;12.100;2023-02-23T12:04:21;37.33;;;24.70;;
21101;SDS011;10709;49.006;12.100;2023-02-23T12:06:49;41.07;;;24.67;;
21101;SDS011;10709;49.006;12.100;2023-02-23T12:09:21;38.57;;;23.07;;
21101;SDS011;10709;49.006;12.100;2023-02-23T12:11:59;32.27;;;22.17;;
21101;SDS011;10709;49.006;12.100;2023-02-23T12:14:34;35.73;;;23.60;;
21101;SDS011;10709;49.006;12.100;2023-02-23T12:17:07;35.80;;;22.67;;
21101;SDS011;10709;49.006;12.100;2023-02-23T12:19:45;36.37;;;22.20;;
21101;SDS011;10709;49.006;12.100;2023-02-23T12:22:17;37.87;;;25.57;;
21101;SDS011;10709;49.006;12.100;2023-02-23T12:24:56;38.10;;;22.87;;
21101;SDS011;10709;49.006;12.100;2023-02-23T12:27:33;39.03;;;24.10;;
21101;SDS011;10709;49.006;12.100;2023-02-23T12:32:58;35.33;;;22.97;;
21101;SDS011;10709;49.006;12.100;2023-02-23T12:35:32;34.60;;;23.83;;
21101;SDS011;10709;49.006;12.100;2023-02-23T12:41:00;37.27;;;22.63;;
21101;SDS011;10709;49.006;12.100;2023-02-23T12:43:39;33.93;;;22.60;;
21101;SDS011;10709;49.006;12.100;2023-02-23T12:46:21;35.07;;;22.57;;
21101;SDS011;10709;49.006;12.100;2023-02-23T12:51:43;36.80;;;23.60;;
21101;SDS011;10709;49.006;12.100;2023-02-23T12:54:16;38.90;;;24.73;;
21101;SDS011;10709;49.006;12.100;2023-02-23T12:56:49;35.37;;;22.97;;
21101;SDS011;10709;49.006;12.100;2023-02-23T13:15:45;39.53;;;26.13;;
21101;SDS011;10709;49.006;12.100;2023-02-23T13:18:23;38.83;;;24.13;;
21101;SDS011;10709;49.006;12.100;2023-02-23T13:21:01;43.10;;;28.27;;
21101;SDS011;10709;49.006;12.100;2023-02-23T13:23:35;40.30;;;26.00;;
21101;SDS011;10709;49.006;12.100;2023-02-23T13:29:05;37.00;;;25.23;;
21101;SDS011;10709;49.006;12.100;2023-02-23T13:31:42;38.53;;;25.23;;
21101;SDS011;10709;49.006;12.100;2023-02-23T13:34:10;35.93;;;23.13;;
21101;SDS011;10709;49.006;12.100;2023-02-23T13:36:42;48.57;;;30.63;;
21101;SDS011;10709;49.006;12.100;2023-02-23T13:45:21;34.37;;;22.73;;
21101;SDS011;10709;49.006;12.100;2023-02-23T13:48:31;39.13;;;25.03;;
21101;SDS011;10709;49.006;12.100;2023-02-23T13:51:33;37.53;;;25.30;;
21101;SDS011;10709;49.006;12.100;2023-02-23T13:56:43;41.87;;;27.10;;
21101;SDS011;10709;49.006;12.100;2023-02-23T13:59:23;37.20;;;25.63;;
21101;SDS011;10709;49.006;12.100;2023-02-23T14:01:54;38.03;;;25.63;;
21101;SDS011;10709;49.006;12.100;2023-02-23T14:04:22;39.80;;;26.17;;
21101;SDS011;10709;49.006;12.100;2023-02-23T14:09:29;45.77;;;28.13;;
21101;SDS011;10709;49.006;12.100;2023-02-23T14:14:37;46.60;;;29.20;;
21101;SDS011;10709;49.006;12.100;2023-02-23T14:19:35;38.07;;;25.13;;
21101;SDS011;10709;49.006;12.100;2023-02-23T14:22:10;39.37;;;25.27;;
21101;SDS011;10709;49.006;12.100;2023-02-23T14:24:42;42.17;;;27.77;;
21101;SDS011;10709;49.006;12.100;2023-02-23T14:30:12;38.87;;;24.87;;
21101;SDS011;10709;49.006;12.100;2023-02-23T14:32:46;42.97;;;26.23;;
21101;SDS011;10709;49.006;12.100;2023-02-23T14:37:59;44.17;;;28.67;;
21101;SDS011;10709;49.006;12.100;2023-02-23T14:40:31;40.97;;;26.50;;
21101;SDS011;10709;49.006;12.100;2023-02-23T14:43:00;39.53;;;26.03;;
21101;SDS011;10709;49.006;12.100;2023-02-23T14:45:29;41.30;;;26.87;;
21101;SDS011;10709;49.006;12.100;2023-02-23T14:48:00;40.27;;;25.90;;
21101;SDS011;10709;49.006;12.100;2023-02-23T14:50:31;40.00;;;25.60;;
21101;SDS011;10709;49.006;12.100;2023-02-23T14:53:00;41.23;;;26.77;;
21101;SDS011;10709;49.006;12.100;2023-02-23T14:55:30;41.27;;;26.30;;
21101;SDS011;10709;49.006;12.100;2023-02-23T14:58:01;38.70;;;25.93;;
21101;SDS011;10709;49.006;12.100;2023-02-23T15:00:30;41.27;;;25.30;;
21101;SDS011;10709;49.006;12.100;2023-02-23T15:02:59;38.63;;;25.63;;
21101;SDS011;10709;49.006;12.100;2023-02-23T15:05:33;54.50;;;35.37;;
21101;SDS011;10709;49.006;12.100;2023-02-23T15:08:03;56.43;;;37.33;;
21101;SDS011;10709;49.006;12.100;2023-02-23T15:10:34;37.83;;;26.63;;
21101;SDS011;10709;49.006;12.100;2023-02-23T15:13:09;37.57;;;25.47;;
21101;SDS011;10709;49.006;12.100;2023-02-23T15:15:43;37.17;;;24.40;;
21101;SDS011;10709;49.006;12.100;2023-02-23T15:21:34;39.77;;;25.33;;
21101;SDS011;10709;49.006;12.100;2023-02-23T15:24:11;41.13;;;26.33;;
21101;SDS011;10709;49.006;12.100;2023-02-23T15:26:41;38.10;;;25.80;;
21101;SDS011;10709;49.006;12.100;2023-02-23T15:31:35;41.37;;;26.77;;
21101;SDS011;10709;49.006;12.100;2023-02-23T15:34:09;41.00;;;26.60;;
21101;SDS011;10709;49.006;12.100;2023-02-23T15:36:36;40.17;;;25.83;;
21101;SDS011;10709;49.006;12.100;2023-02-23T15:39:06;39.83;;;27.40;;
21101;SDS011;10709;49.006;12.100;2023-02-23T15:41:39;59.97;;;41.13;;
21101;SDS011;10709;49.006;12.100;2023-02-23T15:44:13;42.53;;;29.27;;
21101;SDS011;10709;49.006;12.100;2023-02-23T15:46:52;44.43;;;28.27;;
21101;SDS011;10709;49.006;12.100;2023-02-23T15:49:21;38.90;;;26.03;;
21101;SDS011;10709;49.006;12.100;2023-02-23T15:51:56;38.10;;;26.13;;
21101;SDS011;10709;49.006;12.100;2023-02-23T15:54:27;42.43;;;28.10;;
21101;SDS011;10709;49.006;12.100;2023-02-23T15:57:02;41.37;;;26.73;;
21101;SDS011;10709;49.006;12.100;2023-02-23T15:59:35;39.20;;;26.43;;
21101;SDS011;10709;49.006;12.100;2023-02-23T16:02:08;39.27;;;26.23;;
21101;SDS011;10709;49.006;12.100;2023-02-23T16:04:41;42.50;;;26.33;;
21101;SDS011;10709;49.006;12.100;2023-02-23T16:07:16;38.23;;;25.63;;
21101;SDS011;10709;49.006;12.100;2023-02-23T16:12:31;37.40;;;25.00;;
21101;SDS011;10709;49.006;12.100;2023-02-23T16:15:02;42.53;;;27.00;;
21101;SDS011;10709;49.006;12.100;2023-02-23T16:22:40;40.00;;;27.07;;
21101;SDS011;10709;49.006;12.100;2023-02-23T16:25:11;39.93;;;26.33;;
21101;SDS011;10709;49.006;12.100;2023-02-23T16:27:41;40.20;;;26.23;;
21101;SDS011;10709;49.006;12.100;2023-02-23T16:30:18;37.80;;;26.03;;
21101;SDS011;10709;49.006;12.100;2023-02-23T16:35:36;42.23;;;27.83;;
21101;SDS011;10709;49.006;12.100;2023-02-23T16:38:09;44.40;;;27.23;;
21101;SDS011;10709;49.006;12.100;2023-02-23T16:40:39;40.40;;;27.50;;
21101;SDS011;10709;49.006;12.100;2023-02-23T16:43:09;45.20;;;29.43;;
21101;SDS011;10709;49.006;12.100;2023-02-23T16:45:36;39.47;;;25.93;;
21101;SDS011;10709;49.006;12.100;2023-02-23T16:48:07;41.80;;;28.53;;